Time;durP1;ratioP1;P1;durP2;ratioP2;P2;SDS_P1;SDS_P2;PMS_P1;PMS_P2;Temp;Humidity;BMP_temperature;BMP_pressure;BME280_temperature;BME280_humidity;BME280_pressure;Samples;Min_cycle;Max_cycle;Signal;HPM_P1;HPM_P2
2021/03/20 00:00:39;;;;;;;7.83;6.83;;;5.30;99.90;;;;;;5031389;28;20920;-79
2021/03/20 00:03:06;;;;;;;12.30;8.07;;;5.40;99.90;;;;;;5032904;28;20395;-77
2021/03/20 00:05:32;;;;;;;9.20;7.87;;;5.40;99.90;;;;;;5032718;28;20414;-76
2021/03/20 00:07:58;;;;;;;11.50;7.83;;;5.40;99.90;;;;;;5032729;28;20808;-77
2021/03/20 00:10:24;;;;;;;10.20;8.10;;;5.40;99.90;;;;;;5032545;28;20415;-77
2021/03/20 00:12:51;;;;;;;10.60;8.23;;;5.40;99.90;;;;;;5032721;28;20453;-76
2021/03/20 00:15:21;;;;;;;9.57;8.23;;;5.30;99.90;;;;;;5032681;28;20750;-76
2021/03/20 00:17:46;;;;;;;9.13;8.00;;;5.10;99.90;;;;;;5032664;28;20516;-76
2021/03/20 00:20:17;;;;;;;10.30;7.93;;;5.20;99.90;;;;;;5033720;28;20839;-77
2021/03/20 00:22:42;;;;;;;8.63;7.07;;;5.10;99.90;;;;;;5036948;28;20418;-78
2021/03/20 00:25:08;;;;;;;9.37;7.37;;;5.00;99.90;;;;;;5032856;28;20436;-78
2021/03/20 00:27:34;;;;;;;7.30;6.60;;;5.00;99.90;;;;;;5033856;28;20575;-78
2021/03/20 00:30:00;;;;;;;7.70;7.00;;;4.90;99.90;;;;;;5032239;28;20493;-77
2021/03/20 00:32:26;;;;;;;9.87;7.50;;;4.80;99.90;;;;;;5032327;28;20918;-76
2021/03/20 00:34:52;;;;;;;7.23;6.33;;;4.70;99.90;;;;;;5032306;28;20531;-77
2021/03/20 00:37:17;;;;;;;10.63;8.13;;;4.70;99.90;;;;;;5032317;28;20398;-78
2021/03/20 00:39:44;;;;;;;8.40;7.43;;;4.70;99.90;;;;;;5030891;28;20171;-76
2021/03/20 00:42:10;;;;;;;10.70;7.47;;;4.70;99.90;;;;;;5032851;28;20317;-77
2021/03/20 00:44:36;;;;;;;10.50;8.50;;;4.70;99.90;;;;;;5032316;28;20476;-77
2021/03/20 00:47:03;;;;;;;10.03;7.00;;;4.70;99.90;;;;;;5034057;28;20429;-77
2021/03/20 00:49:29;;;;;;;9.63;7.40;;;4.80;99.90;;;;;;5034251;28;20922;-80
2021/03/20 00:51:55;;;;;;;9.30;8.20;;;4.70;99.90;;;;;;5035846;28;20426;-81
2021/03/20 00:54:20;;;;;;;8.93;7.27;;;4.70;99.90;;;;;;5045467;28;20196;-78
2021/03/20 00:56:46;;;;;;;9.27;8.00;;;4.70;99.90;;;;;;5033811;28;20900;-77
2021/03/20 00:59:11;;;;;;;8.30;6.77;;;4.70;99.90;;;;;;5034136;28;20284;-78
2021/03/20 01:01:37;;;;;;;11.30;7.73;;;4.70;99.90;;;;;;5032858;28;20256;-78
2021/03/20 01:04:03;;;;;;;13.20;8.07;;;4.70;99.90;;;;;;5032220;28;20184;-77
2021/03/20 01:06:29;;;;;;;11.43;8.60;;;4.60;99.90;;;;;;5031635;28;20583;-77
2021/03/20 01:08:56;;;;;;;8.47;7.40;;;4.60;99.90;;;;;;5032682;28;20194;-78
2021/03/20 01:11:25;;;;;;;7.43;6.57;;;4.60;99.90;;;;;;5032838;28;20450;-79
2021/03/20 01:13:50;;;;;;;8.67;7.77;;;4.60;99.90;;;;;;5034703;28;20552;-78
2021/03/20 01:16:16;;;;;;;9.23;7.17;;;4.60;99.90;;;;;;5032534;28;20458;-78
2021/03/20 01:18:42;;;;;;;9.80;8.33;;;4.60;99.90;;;;;;5033470;28;20202;-77
2021/03/20 01:21:08;;;;;;;9.23;8.27;;;4.50;99.90;;;;;;5031188;28;20466;-77
2021/03/20 01:23:34;;;;;;;10.80;7.57;;;4.50;99.90;;;;;;5033359;28;20539;-77
2021/03/20 01:26:00;;;;;;;10.60;7.90;;;4.50;99.90;;;;;;5032650;28;20480;-77
2021/03/20 01:28:27;;;;;;;11.23;7.00;;;4.50;99.90;;;;;;5032671;28;20205;-77
2021/03/20 01:30:53;;;;;;;15.17;10.27;;;4.40;99.90;;;;;;5032593;28;20431;-77
2021/03/20 01:33:19;;;;;;;12.80;8.63;;;4.50;99.90;;;;;;5032704;28;20453;-77
2021/03/20 01:35:44;;;;;;;9.27;7.73;;;4.40;99.90;;;;;;5030986;28;20468;-77
2021/03/20 01:38:10;;;;;;;9.17;7.20;;;4.40;99.90;;;;;;5031305;28;20515;-77
2021/03/20 01:40:40;;;;;;;8.47;7.67;;;4.40;99.90;;;;;;5031354;28;20251;-77
2021/03/20 01:43:06;;;;;;;8.20;7.40;;;4.40;99.90;;;;;;5032410;28;20179;-78
2021/03/20 01:45:34;;;;;;;10.83;7.87;;;4.30;99.90;;;;;;5032372;28;20425;-77
2021/03/20 01:48:28;;;;;;;8.37;7.47;;;4.30;99.90;;;;;;5032486;28;20449;-77
2021/03/20 01:51:00;;;;;;;9.40;8.50;;;4.30;99.90;;;;;;5021721;28;20457;-76
2021/03/20 01:53:42;;;;;;;9.10;7.40;;;4.30;99.90;;;;;;5033349;28;20519;-77
2021/03/20 01:56:11;;;;;;;9.00;7.60;;;4.20;99.90;;;;;;5033659;28;20457;-76
2021/03/20 01:58:39;;;;;;;9.00;7.97;;;4.30;99.90;;;;;;5034926;28;21173;-76
2021/03/20 02:01:06;;;;;;;9.47;7.87;;;4.20;99.90;;;;;;5017809;28;20414;-76
2021/03/20 02:03:33;;;;;;;8.97;7.97;;;4.20;99.90;;;;;;5015402;28;20434;-76
2021/03/20 02:06:01;;;;;;;10.00;8.90;;;4.20;99.90;;;;;;5015435;28;20430;-76
2021/03/20 02:08:26;;;;;;;9.53;8.63;;;4.20;99.90;;;;;;5027772;28;20472;-76
2021/03/20 02:10:59;;;;;;;10.33;8.20;;;4.20;99.90;;;;;;5033491;28;20926;-77
2021/03/20 02:13:40;;;;;;;8.13;7.20;;;4.10;99.90;;;;;;5033420;28;20199;-76
2021/03/20 02:16:17;;;;;;;8.87;7.97;;;4.00;99.90;;;;;;5024221;28;20806;-78
2021/03/20 02:18:51;;;;;;;9.93;8.43;;;4.00;99.90;;;;;;5025828;28;20445;-76
2021/03/20 02:21:21;;;;;;;10.83;8.60;;;3.90;99.90;;;;;;5024113;28;20511;-75
2021/03/20 02:24:53;;;;;;;11.17;8.37;;;3.90;99.90;;;;;;5035861;28;20425;-77
2021/03/20 02:27:37;;;;;;;9.90;7.53;;;3.80;99.90;;;;;;5036004;28;20460;-77
2021/03/20 02:30:25;;;;;;;11.83;8.00;;;3.80;99.90;;;;;;5035847;28;20410;-77
2021/03/20 02:33:17;;;;;;;9.73;8.87;;;3.80;99.90;;;;;;5029698;28;20453;-77
2021/03/20 02:35:53;;;;;;;8.93;7.90;;;3.80;99.90;;;;;;5040064;28;20429;-77
2021/03/20 02:38:27;;;;;;;12.10;8.50;;;3.80;99.90;;;;;;5033189;28;20509;-77
2021/03/20 02:41:19;;;;;;;10.53;7.57;;;3.70;99.90;;;;;;5041742;28;20586;-77
2021/03/20 02:43:57;;;;;;;9.57;8.50;;;3.60;99.90;;;;;;5055631;28;20407;-78
2021/03/20 02:46:36;;;;;;;9.50;8.27;;;3.60;99.90;;;;;;5034906;28;20418;-77
2021/03/20 02:49:17;;;;;;;8.27;7.47;;;3.60;99.90;;;;;;5046299;28;20453;-78
2021/03/20 02:51:58;;;;;;;14.00;9.47;;;3.60;99.90;;;;;;5035539;28;20459;-79
2021/03/20 02:54:49;;;;;;;12.53;9.73;;;3.50;99.90;;;;;;5050911;28;20459;-80
2021/03/20 02:57:36;;;;;;;8.23;7.40;;;3.50;99.90;;;;;;5041680;28;20438;-77
2021/03/20 03:00:11;;;;;;;11.13;8.33;;;3.50;99.90;;;;;;5070037;28;20424;-76
2021/03/20 03:02:39;;;;;;;9.27;8.37;;;3.40;99.90;;;;;;5048790;28;20975;-78
2021/03/20 03:05:16;;;;;;;9.37;8.47;;;3.30;99.90;;;;;;5046289;28;20437;-76
2021/03/20 03:07:54;;;;;;;9.90;7.70;;;3.20;99.90;;;;;;5032022;28;20469;-76
2021/03/20 03:10:29;;;;;;;13.17;8.83;;;3.30;99.90;;;;;;5033776;28;20466;-77
2021/03/20 03:13:06;;;;;;;9.43;7.77;;;3.30;99.90;;;;;;5037998;28;20860;-77
2021/03/20 03:15:46;;;;;;;10.50;8.47;;;3.30;99.90;;;;;;5046468;28;20431;-77
2021/03/20 03:18:22;;;;;;;9.63;8.33;;;3.20;99.90;;;;;;5044471;28;20510;-77
2021/03/20 03:20:52;;;;;;;12.67;7.63;;;3.20;99.90;;;;;;5046564;28;20985;-77
2021/03/20 03:23:27;;;;;;;14.40;8.13;;;3.20;99.90;;;;;;5039561;28;20436;-77
2021/03/20 03:26:20;;;;;;;10.00;7.53;;;3.10;99.90;;;;;;5046526;28;20440;-77
2021/03/20 03:28:51;;;;;;;8.00;7.00;;;3.10;99.90;;;;;;5034552;28;20778;-77
2021/03/20 03:31:23;;;;;;;10.80;8.10;;;3.10;99.90;;;;;;5043158;28;20444;-76
2021/03/20 03:34:06;;;;;;;11.30;7.50;;;3.00;99.90;;;;;;5041938;28;20444;-76
2021/03/20 03:36:41;;;;;;;10.00;9.00;;;3.00;99.90;;;;;;5030107;28;20446;-76
2021/03/20 03:39:20;;;;;;;13.83;8.60;;;3.00;99.90;;;;;;5033424;28;20460;-76
2021/03/20 03:41:46;;;;;;;10.50;8.43;;;3.00;99.90;;;;;;5021049;28;20517;-77
2021/03/20 03:44:12;;;;;;;18.80;9.50;;;2.90;99.90;;;;;;5020612;28;20524;-76
2021/03/20 03:46:43;;;;;;;8.60;7.40;;;2.90;99.90;;;;;;5015808;28;20191;-75
2021/03/20 03:49:11;;;;;;;8.60;7.70;;;2.80;99.90;;;;;;5023479;28;20452;-77
2021/03/20 03:51:37;;;;;;;10.03;8.23;;;2.90;99.90;;;;;;5024512;28;20429;-76
2021/03/20 03:54:03;;;;;;;10.80;8.67;;;2.90;99.90;;;;;;5018592;28;20464;-77
2021/03/20 03:56:50;;;;;;;10.90;8.30;;;2.80;99.90;;;;;;5032431;28;20189;-76
2021/03/20 03:59:45;;;;;;;9.80;7.87;;;2.80;99.90;;;;;;5025327;28;20438;-78
2021/03/20 04:02:29;;;;;;;8.23;6.60;;;2.80;99.90;;;;;;5014795;28;20512;-76
2021/03/20 04:05:15;;;;;;;10.70;8.60;;;2.70;99.90;;;;;;5024485;28;20434;-77
2021/03/20 04:08:03;;;;;;;8.00;6.43;;;2.70;99.90;;;;;;5051982;28;20950;-76
2021/03/20 04:10:45;;;;;;;10.63;8.00;;;2.70;99.90;;;;;;5048678;28;20430;-76
2021/03/20 04:13:36;;;;;;;7.30;5.60;;;2.70;99.90;;;;;;5039106;28;20555;-77
2021/03/20 04:16:22;;;;;;;8.27;6.60;;;2.70;99.90;;;;;;5040851;28;20834;-77
2021/03/20 04:19:31;;;;;;;9.93;5.50;;;2.70;99.90;;;;;;5047704;28;20450;-77
2021/03/20 04:22:03;;;;;;;15.43;7.70;;;2.70;99.90;;;;;;5050801;28;21000;-77
2021/03/20 04:24:48;;;;;;;7.07;5.87;;;2.70;99.90;;;;;;5052179;28;20437;-77
2021/03/20 04:27:17;;;;;;;7.97;5.90;;;2.70;99.90;;;;;;5049979;28;20433;-77
2021/03/20 04:29:58;;;;;;;5.60;5.03;;;2.60;99.90;;;;;;5053044;28;20417;-76
2021/03/20 04:33:01;;;;;;;8.13;5.00;;;2.60;99.90;;;;;;5043373;28;20441;-77
2021/03/20 04:35:33;;;;;;;7.83;5.47;;;2.60;99.90;;;;;;5019808;28;20449;-77
2021/03/20 04:38:01;;;;;;;7.97;5.60;;;2.60;99.90;;;;;;5053453;28;20451;-79
2021/03/20 04:40:43;;;;;;;8.43;5.40;;;2.60;99.90;;;;;;5049580;28;20422;-80
2021/03/20 04:43:11;;;;;;;8.07;6.87;;;2.60;99.90;;;;;;5050564;28;20425;-79
2021/03/20 04:45:41;;;;;;;7.67;5.70;;;2.60;99.90;;;;;;5043079;28;20436;-79
2021/03/20 04:48:28;;;;;;;5.47;4.80;;;2.60;99.90;;;;;;5053058;28;20449;-79
2021/03/20 04:50:58;;;;;;;7.30;5.67;;;2.60;99.90;;;;;;5048976;28;20436;-79
2021/03/20 04:53:25;;;;;;;7.90;6.10;;;2.60;99.90;;;;;;5052941;28;20458;-79
2021/03/20 04:55:55;;;;;;;6.20;5.27;;;2.40;99.90;;;;;;5051565;28;20468;-79
2021/03/20 04:58:44;;;;;;;5.60;5.00;;;2.40;99.90;;;;;;5046007;28;20448;-79
2021/03/20 05:01:35;;;;;;;6.00;5.40;;;2.40;99.90;;;;;;5039690;28;20784;-80
2021/03/20 05:04:06;;;;;;;5.53;4.60;;;2.40;99.90;;;;;;5036104;28;20424;-79
2021/03/20 05:06:34;;;;;;;5.03;4.63;;;2.30;99.90;;;;;;5036283;28;20458;-78
2021/03/20 05:09:04;;;;;;;18.60;6.20;;;2.30;99.90;;;;;;5038495;28;20452;-78
2021/03/20 05:11:47;;;;;;;4.63;3.90;;;2.20;99.90;;;;;;5031815;28;20408;-76
2021/03/20 05:14:17;;;;;;;5.93;4.73;;;2.30;99.90;;;;;;5037234;28;20502;-78
2021/03/20 05:16:50;;;;;;;6.80;5.60;;;2.20;99.90;;;;;;5025056;28;20411;-78
2021/03/20 05:19:17;;;;;;;5.83;5.20;;;2.10;99.90;;;;;;5012260;28;20434;-76
2021/03/20 05:21:45;;;;;;;10.70;6.90;;;2.10;99.90;;;;;;5016217;28;20434;-77
2021/03/20 05:24:21;;;;;;;10.60;6.10;;;2.10;99.90;;;;;;5023174;28;20427;-76
2021/03/20 05:26:47;;;;;;;12.07;5.70;;;2.10;99.90;;;;;;5017017;28;20431;-76
2021/03/20 05:29:13;;;;;;;9.63;5.43;;;2.10;99.90;;;;;;5029803;28;20980;-81
2021/03/20 05:31:39;;;;;;;6.43;5.73;;;2.10;99.90;;;;;;5020987;28;20443;-77
2021/03/20 05:34:17;;;;;;;9.80;6.13;;;2.10;99.90;;;;;;5028550;28;20203;-77
2021/03/20 05:36:42;;;;;;;6.60;5.00;;;2.10;99.90;;;;;;5035890;28;20658;-77
2021/03/20 05:39:08;;;;;;;7.73;5.20;;;2.10;99.90;;;;;;5032420;28;20481;-79
2021/03/20 05:42:05;;;;;;;7.57;5.30;;;2.00;99.90;;;;;;5053495;28;20206;-80
2021/03/20 05:44:55;;;;;;;5.43;4.37;;;2.00;99.90;;;;;;5051559;28;20240;-80
2021/03/20 05:47:20;;;;;;;8.17;5.10;;;2.00;99.90;;;;;;5047086;28;20433;-79
2021/03/20 05:49:49;;;;;;;7.33;5.40;;;2.00;99.90;;;;;;5037278;28;20492;-79
2021/03/20 05:52:22;;;;;;;5.80;5.30;;;2.10;99.90;;;;;;5050225;28;20179;-80
2021/03/20 05:54:47;;;;;;;7.73;6.00;;;2.10;99.90;;;;;;5043809;28;20456;-77
2021/03/20 05:57:50;;;;;;;6.57;5.00;;;2.00;99.90;;;;;;5058323;28;20412;-80
2021/03/20 06:00:19;;;;;;;8.63;4.77;;;2.00;99.90;;;;;;5020941;28;20622;-76
2021/03/20 06:03:14;;;;;;;7.23;4.60;;;2.00;99.90;;;;;;5054988;28;21010;-74
2021/03/20 06:05:50;;;;;;;5.70;4.50;;;2.10;99.90;;;;;;5015449;28;20397;-76
2021/03/20 06:08:27;;;;;;;8.30;5.33;;;2.20;99.90;;;;;;5018143;28;20444;-75
2021/03/20 06:10:56;;;;;;;6.60;4.40;;;2.30;99.90;;;;;;5024317;28;20929;-75
2021/03/20 06:13:43;;;;;;;6.13;4.57;;;2.40;99.90;;;;;;5046484;28;20457;-76
2021/03/20 06:16:32;;;;;;;7.13;4.30;;;2.50;99.90;;;;;;5021670;28;20457;-78
2021/03/20 06:19:39;;;;;;;7.10;4.40;;;2.60;99.90;;;;;;5047423;28;20519;-76
2021/03/20 06:22:23;;;;;;;8.70;5.23;;;2.60;99.90;;;;;;5032714;28;20426;-78
2021/03/20 06:25:01;;;;;;;5.17;4.70;;;2.70;99.90;;;;;;5055151;28;20798;-77
2021/03/20 06:27:47;;;;;;;8.87;4.83;;;2.80;99.90;;;;;;5049157;28;20454;-78
2021/03/20 06:30:46;;;;;;;8.07;4.13;;;2.80;99.90;;;;;;5038193;28;20429;-78
2021/03/20 06:33:21;;;;;;;6.27;4.07;;;2.90;99.90;;;;;;5038523;28;20509;-76
2021/03/20 06:35:56;;;;;;;5.00;3.93;;;2.90;99.90;;;;;;5051602;28;20430;-77
2021/03/20 06:38:31;;;;;;;4.57;3.23;;;3.00;99.90;;;;;;5037323;28;20965;-79
2021/03/20 06:41:08;;;;;;;6.97;3.67;;;3.00;99.90;;;;;;5042248;28;20816;-78
2021/03/20 06:43:38;;;;;;;5.70;3.93;;;3.10;99.90;;;;;;5040790;28;20432;-79
2021/03/20 06:46:11;;;;;;;4.77;3.63;;;3.20;99.90;;;;;;5047800;28;20429;-79
2021/03/20 06:48:37;;;;;;;7.87;4.57;;;3.30;99.90;;;;;;5041665;28;20524;-78
2021/03/20 06:51:02;;;;;;;4.83;3.80;;;3.30;99.90;;;;;;5035669;28;20442;-78
2021/03/20 06:53:48;;;;;;;6.27;3.70;;;3.40;99.90;;;;;;5038404;28;20673;-76
2021/03/20 06:56:15;;;;;;;4.30;3.73;;;3.30;99.90;;;;;;5036121;28;20187;-75
2021/03/20 06:58:42;;;;;;;6.20;3.60;;;3.40;99.90;;;;;;5054077;28;20925;-76
2021/03/20 07:01:49;;;;;;;3.90;3.53;;;3.40;99.90;;;;;;5049172;28;20941;-75
2021/03/20 07:04:51;;;;;;;4.57;3.70;;;3.40;99.90;;;;;;5043995;28;20425;-76
2021/03/20 07:07:29;;;;;;;5.37;3.30;;;3.50;99.90;;;;;;5033903;28;20863;-76
2021/03/20 07:09:55;;;;;;;4.10;3.70;;;3.50;99.90;;;;;;5050625;28;20425;-77
2021/03/20 07:12:25;;;;;;;8.23;3.70;;;3.50;99.90;;;;;;5048330;28;20425;-76
2021/03/20 07:14:56;;;;;;;4.90;3.70;;;3.50;99.90;;;;;;5049196;28;20472;-76
2021/03/20 07:17:25;;;;;;;4.10;3.63;;;3.60;99.90;;;;;;5051551;28;21034;-76
2021/03/20 07:20:11;;;;;;;4.10;3.67;;;3.50;99.90;;;;;;5036690;28;20416;-76
2021/03/20 07:22:36;;;;;;;5.40;3.60;;;3.70;99.90;;;;;;5037313;28;20770;-76
2021/03/20 07:25:24;;;;;;;6.47;3.90;;;3.70;99.90;;;;;;5051849;28;20454;-76
2021/03/20 07:27:51;;;;;;;4.60;4.20;;;3.70;99.90;;;;;;5048332;28;20189;-76
2021/03/20 07:30:37;;;;;;;5.20;3.20;;;4.50;99.90;;;;;;5049791;28;20421;-76
2021/03/20 07:33:30;;;;;;;5.03;3.30;;;5.90;99.90;;;;;;5040069;28;20460;-76
2021/03/20 07:36:27;;;;;;;4.77;3.23;;;6.90;99.90;;;;;;5048501;28;20431;-76
2021/03/20 07:39:11;;;;;;;6.20;3.80;;;7.80;99.90;;;;;;5046035;28;20779;-76
2021/03/20 07:42:26;;;;;;;5.87;3.83;;;9.00;99.90;;;;;;5036827;28;20788;-77
2021/03/20 07:45:09;;;;;;;4.27;3.67;;;9.70;99.90;;;;;;4974077;28;20425;-78
2021/03/20 07:47:39;;;;;;;5.70;2.77;;;10.20;99.90;;;;;;4976093;28;20455;-78
2021/03/20 07:50:21;;;;;;;3.17;2.60;;;10.30;99.90;;;;;;5029167;28;20451;-75
2021/03/20 07:53:08;;;;;;;3.40;2.90;;;10.70;99.90;;;;;;5048102;28;20429;-76
2021/03/20 07:55:52;;;;;;;3.30;2.97;;;10.80;99.90;;;;;;5044281;28;20883;-76
2021/03/20 07:58:24;;;;;;;4.70;3.00;;;10.70;99.80;;;;;;5048076;28;20437;-75
2021/03/20 08:00:58;;;;;;;9.13;3.77;;;10.80;99.90;;;;;;5039812;28;20521;-75
2021/03/20 08:03:27;;;;;;;4.43;3.50;;;11.00;99.90;;;;;;5030807;28;20563;-75
2021/03/20 08:05:53;;;;;;;7.27;3.53;;;11.20;97.90;;;;;;5039525;28;20950;-77
2021/03/20 08:08:24;;;;;;;3.90;3.50;;;11.70;97.90;;;;;;5037015;28;20818;-77
2021/03/20 08:10:58;;;;;;;3.33;3.03;;;12.30;96.00;;;;;;5037485;28;20430;-75
2021/03/20 08:13:41;;;;;;;4.17;3.50;;;12.80;94.20;;;;;;5045451;28;20468;-76
2021/03/20 08:16:07;;;;;;;6.70;4.40;;;12.70;91.80;;;;;;5043172;28;20422;-76
2021/03/20 08:18:36;;;;;;;5.03;4.00;;;13.20;91.30;;;;;;5048611;28;20972;-76
2021/03/20 08:21:20;;;;;;;3.87;3.17;;;13.40;88.70;;;;;;5053074;28;20158;-77
2021/03/20 08:24:15;;;;;;;4.13;3.70;;;13.80;84.80;;;;;;5042368;28;20437;-77
2021/03/20 08:26:48;;;;;;;4.27;3.70;;;13.90;78.90;;;;;;5045171;28;20867;-77
2021/03/20 08:29:44;;;;;;;6.03;3.57;;;14.00;76.60;;;;;;5049019;28;20449;-76
2021/03/20 08:32:46;;;;;;;5.17;3.40;;;13.90;76.50;;;;;;5047112;28;20439;-77
2021/03/20 08:35:35;;;;;;;5.37;3.43;;;14.10;76.50;;;;;;5032947;28;20413;-76
2021/03/20 08:38:11;;;;;;;5.50;3.70;;;14.20;75.70;;;;;;5041509;28;20480;-76
2021/03/20 08:40:48;;;;;;;6.47;4.80;;;14.40;75.00;;;;;;5049580;28;20471;-76
2021/03/20 08:43:42;;;;;;;4.93;4.43;;;14.50;73.70;;;;;;5042169;28;20434;-76
2021/03/20 08:46:28;;;;;;;4.50;4.10;;;14.70;71.70;;;;;;5031310;28;20414;-76
2021/03/20 08:49:33;;;;;;;6.77;4.80;;;14.10;70.60;;;;;;5045711;28;20453;-75
2021/03/20 08:52:10;;;;;;;4.13;3.67;;;14.40;72.10;;;;;;4999717;28;20431;-75
2021/03/20 08:54:52;;;;;;;7.13;4.10;;;14.50;70.00;;;;;;5045601;28;20458;-74
2021/03/20 08:57:39;;;;;;;4.43;4.00;;;14.00;68.20;;;;;;5024699;28;20887;-75
2021/03/20 09:00:21;;;;;;;5.33;4.33;;;13.50;68.60;;;;;;5051926;28;20432;-73
2021/03/20 09:02:50;;;;;;;4.37;4.00;;;13.20;70.10;;;;;;5019065;28;20433;-72
2021/03/20 09:05:33;;;;;;;5.87;4.13;;;12.80;72.30;;;;;;5032368;28;20469;-76
2021/03/20 09:08:00;;;;;;;5.00;4.13;;;12.80;80.60;;;;;;5041145;28;20985;-72
2021/03/20 09:10:39;;;;;;;5.50;4.73;;;12.40;79.40;;;;;;5031949;28;20965;-71
2021/03/20 09:13:37;;;;;;;4.57;3.73;;;12.60;89.60;;;;;;5043981;28;20460;-75
2021/03/20 09:16:49;;;;;;;5.77;4.40;;;13.00;81.80;;;;;;5047737;28;20783;-75
2021/03/20 09:19:41;;;;;;;6.03;5.40;;;13.20;76.40;;;;;;5032643;28;20438;-76
2021/03/20 09:22:12;;;;;;;5.00;3.60;;;13.50;80.90;;;;;;5034026;28;20437;-74
2021/03/20 09:24:51;;;;;;;3.90;3.30;;;13.90;76.80;;;;;;5034372;28;20483;-78
2021/03/20 09:27:54;;;;;;;5.17;4.10;;;14.30;73.40;;;;;;5049289;28;20437;-77
2021/03/20 09:30:28;;;;;;;6.30;4.73;;;14.80;69.30;;;;;;5035257;28;20406;-77
2021/03/20 09:32:54;;;;;;;3.27;3.00;;;15.10;63.90;;;;;;5041030;28;20453;-78
2021/03/20 09:35:45;;;;;;;3.23;2.60;;;15.00;58.00;;;;;;5042944;28;20434;-78
2021/03/20 09:38:12;;;;;;;3.00;2.80;;;15.40;55.10;;;;;;5045063;28;20724;-76
2021/03/20 09:40:40;;;;;;;4.00;3.50;;;15.70;52.60;;;;;;5037496;28;20425;-72
2021/03/20 09:43:27;;;;;;;4.00;3.20;;;15.40;52.40;;;;;;5041972;28;20422;-79
2021/03/20 09:46:29;;;;;;;3.17;2.83;;;15.30;51.50;;;;;;5036193;28;20422;-76
2021/03/20 09:48:56;;;;;;;3.43;2.63;;;15.70;50.20;;;;;;5031592;28;20474;-76
2021/03/20 09:51:49;;;;;;;4.97;3.27;;;15.90;47.50;;;;;;5038196;28;20443;-76
2021/03/20 09:54:24;;;;;;;5.37;3.10;;;15.80;47.80;;;;;;5029674;28;20449;-76
2021/03/20 09:56:49;;;;;;;7.53;3.60;;;16.00;49.30;;;;;;5018847;28;20421;-76
2021/03/20 09:59:27;;;;;;;4.87;3.40;;;16.50;50.20;;;;;;5030987;28;20797;-76
2021/03/20 10:01:54;;;;;;;4.67;3.57;;;16.00;48.70;;;;;;5030316;28;20234;-76
2021/03/20 10:04:31;;;;;;;3.53;3.10;;;16.10;50.10;;;;;;5031129;28;20919;-77
2021/03/20 10:07:17;;;;;;;8.80;3.03;;;16.00;57.50;;;;;;5032077;28;20776;-77
2021/03/20 10:10:05;;;;;;;4.63;3.57;;;16.50;57.80;;;;;;5031076;28;20410;-77
2021/03/20 10:12:39;;;;;;;8.60;3.87;;;16.50;54.90;;;;;;5032001;28;20415;-77
2021/03/20 10:18:01;;;;;;;4.83;3.73;;;17.20;53.80;;;;;;5034661;28;20436;-77
2021/03/20 10:20:48;;;;;;;4.20;3.07;;;17.00;52.60;;;;;;5035075;28;20903;-77
2021/03/20 10:23:46;;;;;;;5.43;3.73;;;17.20;52.00;;;;;;5034537;28;20410;-77
2021/03/20 10:26:26;;;;;;;6.20;3.83;;;17.50;52.30;;;;;;5035366;28;20422;-77
2021/03/20 10:28:56;;;;;;;3.30;2.97;;;17.50;52.10;;;;;;5033332;28;20446;-77
2021/03/20 10:31:23;;;;;;;4.20;3.37;;;17.60;51.10;;;;;;5034123;28;20399;-77
2021/03/20 10:33:59;;;;;;;4.90;3.40;;;18.00;51.20;;;;;;5034498;28;21017;-77
2021/03/20 10:36:33;;;;;;;5.87;3.93;;;17.90;49.20;;;;;;5034896;28;20529;-77
2021/03/20 10:38:58;;;;;;;3.27;2.97;;;17.70;46.40;;;;;;5033811;28;20436;-77
2021/03/20 10:41:37;;;;;;;3.50;3.20;;;17.70;48.30;;;;;;5033819;28;20497;-77
2021/03/20 10:44:15;;;;;;;3.70;3.40;;;18.00;47.50;;;;;;5034480;28;20163;-77
2021/03/20 10:46:41;;;;;;;5.43;3.47;;;18.10;47.20;;;;;;5034361;28;20492;-77
2021/03/20 10:49:23;;;;;;;4.90;2.97;;;17.90;46.30;;;;;;5032677;28;20434;-77
2021/03/20 10:51:54;;;;;;;3.47;2.93;;;17.80;46.00;;;;;;5026121;28;20426;-77
2021/03/20 10:54:33;;;;;;;3.20;2.70;;;17.50;44.00;;;;;;5034442;28;20486;-77
2021/03/20 10:57:16;;;;;;;11.10;3.23;;;17.40;45.90;;;;;;5034543;28;20892;-77
2021/03/20 10:59:45;;;;;;;4.23;2.30;;;17.40;44.50;;;;;;5033867;28;20422;-76
2021/03/20 11:02:13;;;;;;;2.60;2.30;;;17.60;43.50;;;;;;5033777;28;20747;-76
2021/03/20 11:04:39;;;;;;;3.73;2.33;;;17.20;43.40;;;;;;5034114;28;20747;-76
2021/03/20 11:07:15;;;;;;;2.73;2.50;;;17.40;40.20;;;;;;5033944;28;20413;-76
2021/03/20 11:09:41;;;;;;;2.10;1.90;;;17.30;38.30;;;;;;5033362;28;20267;-76
2021/03/20 11:12:12;;;;;;;4.50;1.93;;;17.00;38.50;;;;;;5032452;28;20493;-76
2021/03/20 11:14:54;;;;;;;8.50;3.40;;;16.90;39.30;;;;;;5033900;28;20195;-76
2021/03/20 11:17:26;;;;;;;2.47;1.93;;;17.20;40.60;;;;;;5033808;28;20398;-77
2021/03/20 11:19:58;;;;;;;3.13;2.37;;;17.40;39.20;;;;;;5033452;28;20411;-76
2021/03/20 11:22:34;;;;;;;2.80;2.37;;;17.10;40.50;;;;;;5033330;28;20911;-76
2021/03/20 11:25:29;;;;;;;3.00;2.70;;;17.20;42.70;;;;;;5033332;28;20426;-77
2021/03/20 11:28:08;;;;;;;3.87;2.23;;;17.30;41.90;;;;;;5033704;28;20425;-76
2021/03/20 11:30:43;;;;;;;3.63;2.97;;;17.30;43.30;;;;;;5032871;28;20442;-76
2021/03/20 11:33:18;;;;;;;3.40;2.23;;;17.10;42.50;;;;;;5033526;28;20999;-77
2021/03/20 11:35:47;;;;;;;2.57;2.37;;;16.50;41.40;;;;;;5033197;28;20441;-77
2021/03/20 11:38:15;;;;;;;5.83;3.13;;;16.70;43.20;;;;;;5033341;28;20438;-77
2021/03/20 11:40:44;;;;;;;5.83;2.60;;;16.50;43.00;;;;;;5032684;28;20418;-77
2021/03/20 11:43:19;;;;;;;3.27;2.03;;;16.40;44.10;;;;;;5032038;28;20509;-77
2021/03/20 11:45:45;;;;;;;4.23;2.80;;;16.40;43.90;;;;;;5032010;28;20500;-77
2021/03/20 11:48:22;;;;;;;2.63;2.43;;;16.30;42.40;;;;;;5032915;28;20433;-77
2021/03/20 11:50:57;;;;;;;4.30;2.40;;;16.00;41.90;;;;;;5032692;28;20425;-77
2021/03/20 11:53:28;;;;;;;2.77;2.57;;;15.80;42.10;;;;;;5033041;28;20450;-77
2021/03/20 11:55:55;;;;;;;3.60;2.60;;;15.70;40.90;;;;;;5033048;28;20429;-77
2021/03/20 11:58:31;;;;;;;3.40;2.80;;;15.40;40.20;;;;;;5031745;28;20430;-77
2021/03/20 12:00:58;;;;;;;3.20;2.40;;;15.30;41.00;;;;;;5031073;28;20421;-77
2021/03/20 12:03:32;;;;;;;5.97;2.87;;;15.60;42.10;;;;;;5030815;28;20437;-77
2021/03/20 12:06:27;;;;;;;3.40;2.57;;;15.50;41.30;;;;;;5032954;28;20405;-77
2021/03/20 12:08:55;;;;;;;3.03;2.77;;;15.60;41.10;;;;;;5032545;28;20951;-77
2021/03/20 12:11:41;;;;;;;2.13;1.90;;;15.70;40.10;;;;;;5037313;28;20418;-77
2021/03/20 12:14:29;;;;;;;3.00;2.50;;;16.00;40.00;;;;;;5033657;28;20490;-77
2021/03/20 12:17:25;;;;;;;4.03;3.30;;;16.10;41.70;;;;;;5047262;28;20414;-77
2021/03/20 12:19:58;;;;;;;4.00;2.80;;;16.40;42.10;;;;;;5022443;28;21192;-78
2021/03/20 12:22:38;;;;;;;2.80;2.60;;;16.80;40.00;;;;;;5026815;28;20418;-77
2021/03/20 12:25:43;;;;;;;2.70;2.50;;;16.90;39.40;;;;;;5043220;28;20421;-77
2021/03/20 12:28:26;;;;;;;2.57;2.37;;;16.70;39.10;;;;;;5009353;28;20457;-77
2021/03/20 12:31:01;;;;;;;2.60;2.40;;;16.50;39.00;;;;;;5032131;28;20410;-77
2021/03/20 12:33:27;;;;;;;3.93;2.50;;;16.70;39.10;;;;;;5029961;28;20528;-77
2021/03/20 12:35:52;;;;;;;3.50;2.20;;;16.60;38.60;;;;;;5032220;28;20460;-77
2021/03/20 12:38:29;;;;;;;2.90;2.50;;;16.60;38.30;;;;;;5031156;28;20850;-77
2021/03/20 12:40:58;;;;;;;3.10;2.67;;;16.40;38.20;;;;;;5031802;28;20216;-77
2021/03/20 12:43:34;;;;;;;2.50;2.30;;;16.60;36.40;;;;;;5031993;28;20429;-77
2021/03/20 12:46:05;;;;;;;4.33;2.37;;;16.20;37.20;;;;;;5032654;28;20879;-76
2021/03/20 12:48:33;;;;;;;2.80;2.57;;;16.50;36.80;;;;;;5023142;28;20445;-77
2021/03/20 12:51:03;;;;;;;2.33;2.10;;;16.60;36.00;;;;;;5031076;28;20792;-76
2021/03/20 12:53:28;;;;;;;3.20;2.27;;;16.70;36.30;;;;;;5043071;28;20815;-77
2021/03/20 12:55:54;;;;;;;3.43;2.70;;;16.80;37.30;;;;;;5032620;28;20430;-77
2021/03/20 12:58:20;;;;;;;5.50;2.20;;;16.80;36.90;;;;;;5031819;28;20214;-77
2021/03/20 13:00:45;;;;;;;5.70;2.43;;;16.80;39.30;;;;;;5031422;28;20171;-77
2021/03/20 13:03:11;;;;;;;3.47;2.63;;;16.80;41.20;;;;;;5032263;28;20225;-77
2021/03/20 13:05:39;;;;;;;2.93;2.63;;;16.80;40.10;;;;;;5030269;28;20183;-77
2021/03/20 13:08:06;;;;;;;5.17;2.30;;;17.00;40.30;;;;;;5031368;28;20196;-77
2021/03/20 13:10:32;;;;;;;4.77;2.07;;;16.70;38.50;;;;;;5030846;28;20428;-77
2021/03/20 13:12:58;;;;;;;1.70;1.60;;;16.70;38.00;;;;;;5031456;28;20444;-77
2021/03/20 13:15:24;;;;;;;4.10;2.60;;;16.70;37.40;;;;;;5031892;28;20768;-77
2021/03/20 13:17:50;;;;;;;5.23;2.43;;;16.60;36.60;;;;;;5031807;28;20183;-77
2021/03/20 13:20:19;;;;;;;9.67;3.70;;;16.70;36.60;;;;;;5031282;28;20459;-77
2021/03/20 13:22:44;;;;;;;2.80;2.20;;;16.30;34.60;;;;;;5030487;28;20409;-77
2021/03/20 13:25:22;;;;;;;3.40;2.30;;;16.30;35.50;;;;;;5031818;28;20406;-77
2021/03/20 13:27:48;;;;;;;2.43;2.13;;;16.00;35.90;;;;;;5031826;28;20194;-77
2021/03/20 13:30:14;;;;;;;4.03;2.33;;;16.20;36.00;;;;;;5030264;28;20931;-77
2021/03/20 13:32:39;;;;;;;1.70;1.60;;;16.10;36.30;;;;;;5031627;28;20406;-78
2021/03/20 13:35:05;;;;;;;3.23;2.67;;;16.20;35.40;;;;;;5031649;28;20465;-77
2021/03/20 13:37:31;;;;;;;3.37;3.07;;;16.40;35.50;;;;;;5031586;28;20187;-77